createdAt,value
2023-08-29T00:00:27.840Z,6.32
2023-08-29T00:03:32.242Z,6.50
2023-08-29T00:06:34.244Z,6.95
2023-08-29T00:09:36.457Z,6.45
2023-08-29T00:15:40.292Z,6.60
2023-08-29T00:18:44.870Z,6.75
2023-08-29T00:21:48.902Z,6.05
2023-08-29T00:24:53.497Z,6.70
2023-08-29T00:27:55.490Z,6.75
2023-08-29T00:30:57.380Z,6.55
2023-08-29T00:33:59.320Z,5.93
2023-08-29T00:37:01.288Z,6.97
2023-08-29T00:40:04.955Z,6.40
2023-08-29T00:43:07.093Z,6.07
2023-08-29T00:46:09.252Z,5.97
2023-08-29T00:49:13.145Z,5.60
2023-08-29T00:52:15.472Z,6.00
2023-08-29T00:55:18.404Z,6.50
2023-08-29T00:58:20.587Z,6.75
2023-08-29T01:01:22.910Z,6.13
2023-08-29T01:07:26.914Z,5.93
2023-08-29T01:10:38.025Z,6.32
2023-08-29T01:14:04.057Z,5.90
2023-08-29T01:17:12.129Z,5.68
2023-08-29T01:20:15.676Z,5.95
2023-08-29T01:23:29.371Z,5.65
2023-08-29T01:26:32.317Z,5.68
2023-08-29T01:29:35.537Z,5.75
2023-08-29T01:32:40.116Z,6.30
2023-08-29T01:35:48.912Z,5.80
2023-08-29T01:38:50.843Z,6.40
2023-08-29T01:41:52.711Z,6.45
2023-08-29T01:44:55.499Z,6.10
2023-08-29T01:47:57.964Z,6.00
2023-08-29T01:54:01.780Z,5.87
2023-08-29T01:57:05.017Z,6.30
2023-08-29T02:00:08.660Z,6.25
2023-08-29T02:03:16.459Z,6.50
2023-08-29T02:06:18.502Z,5.57
2023-08-29T02:09:20.593Z,6.07
2023-08-29T02:12:22.518Z,5.50
2023-08-29T02:15:24.439Z,5.50
2023-08-29T02:18:26.471Z,6.30
2023-08-29T02:21:28.354Z,5.95
2023-08-29T02:24:30.744Z,6.15
2023-08-29T02:30:38.323Z,5.53
2023-08-29T02:33:40.287Z,6.18
2023-08-29T02:36:42.527Z,5.80
2023-08-29T02:39:44.508Z,5.68
2023-08-29T02:42:46.550Z,5.80
2023-08-29T02:45:53.053Z,5.50
2023-08-29T02:48:54.952Z,5.50
2023-08-29T02:51:57.975Z,5.93
2023-08-29T02:54:59.998Z,5.18
2023-08-29T02:58:02.180Z,5.30
2023-08-29T03:01:07.365Z,5.75
2023-08-29T03:04:09.300Z,5.22
2023-08-29T03:07:11.681Z,5.90
2023-08-29T03:10:13.622Z,5.68
2023-08-29T03:13:15.488Z,5.90
2023-08-29T03:16:20.269Z,5.55
2023-08-29T03:19:22.831Z,5.90
2023-08-29T03:22:25.605Z,5.35
2023-08-29T03:25:27.465Z,5.68
2023-08-29T03:28:29.573Z,5.82
2023-08-29T03:31:31.677Z,5.45
2023-08-29T03:34:35.932Z,5.60
2023-08-29T03:37:37.857Z,5.93
2023-08-29T03:40:39.744Z,5.55
2023-08-29T03:43:41.707Z,5.28
2023-08-29T03:46:44.416Z,5.50
2023-08-29T03:49:46.290Z,5.20
2023-08-29T03:52:48.353Z,5.30
2023-08-29T03:55:51.397Z,4.90
2023-08-29T04:01:55.171Z,5.43
2023-08-29T04:05:13.264Z,5.72
2023-08-29T04:08:16.246Z,5.20
2023-08-29T04:11:18.235Z,6.22
2023-08-29T04:14:20.294Z,5.40
2023-08-29T04:17:22.209Z,5.20
2023-08-29T04:20:24.308Z,4.97
2023-08-29T04:23:27.117Z,5.68
2023-08-29T04:26:29.311Z,5.30
2023-08-29T04:29:31.211Z,4.97
2023-08-29T04:32:35.684Z,5.53
2023-08-29T04:35:37.712Z,4.93
2023-08-29T04:38:39.928Z,5.72
2023-08-29T04:41:41.890Z,4.85
2023-08-29T04:44:45.840Z,4.93
2023-08-29T04:47:49.183Z,4.80
2023-08-29T04:50:51.171Z,4.90
2023-08-29T04:53:53.065Z,4.70
2023-08-29T04:56:54.984Z,4.93
2023-08-29T04:59:56.924Z,4.30
2023-08-29T05:02:59.071Z,4.90
2023-08-29T05:06:01.078Z,4.57
2023-08-29T05:09:03.296Z,4.45
2023-08-29T05:12:05.999Z,4.47
2023-08-29T05:15:09.180Z,4.03
2023-08-29T05:18:12.188Z,4.45
2023-08-29T05:21:14.189Z,3.83
2023-08-29T05:24:16.057Z,4.15
2023-08-29T05:27:17.930Z,4.60
2023-08-29T05:30:19.990Z,4.03
2023-08-29T05:33:22.007Z,4.20
2023-08-29T05:36:23.970Z,4.30
2023-08-29T05:39:25.922Z,4.20
2023-08-29T05:42:28.151Z,4.03
2023-08-29T05:45:30.161Z,4.28
2023-08-29T05:48:32.123Z,3.90
2023-08-29T05:51:34.170Z,4.47
2023-08-29T05:54:37.813Z,4.15
2023-08-29T05:57:39.657Z,3.92
2023-08-29T06:00:41.638Z,4.68
2023-08-29T06:03:43.851Z,4.10
2023-08-29T06:06:45.829Z,4.30
2023-08-29T06:09:47.756Z,3.90
2023-08-29T06:12:49.904Z,4.15
2023-08-29T06:15:51.807Z,4.10
2023-08-29T06:18:53.744Z,4.55
2023-08-29T06:21:55.643Z,4.75
2023-08-29T06:24:57.599Z,4.10
2023-08-29T06:27:59.571Z,4.20
2023-08-29T06:31:11.039Z,4.18
2023-08-29T06:34:13.459Z,4.68
2023-08-29T06:37:16.198Z,4.25
2023-08-29T06:40:18.171Z,4.43
2023-08-29T06:43:20.109Z,3.90
2023-08-29T06:46:22.055Z,4.32
2023-08-29T06:49:23.988Z,4.05
2023-08-29T06:52:27.771Z,4.15
2023-08-29T06:55:29.987Z,3.88
2023-08-29T07:01:34.201Z,4.20
2023-08-29T07:04:36.141Z,4.40
2023-08-29T07:07:38.742Z,4.00
2023-08-29T07:10:40.605Z,4.90
2023-08-29T07:13:42.583Z,3.90
2023-08-29T07:16:50.609Z,3.83
2023-08-29T07:20:03.579Z,4.25
2023-08-29T07:23:10.933Z,4.30
2023-08-29T07:26:12.872Z,4.38
2023-08-29T07:29:14.719Z,4.22
2023-08-29T07:32:16.581Z,4.10
2023-08-29T07:35:18.510Z,4.28
2023-08-29T07:38:20.428Z,3.90
2023-08-29T07:41:22.304Z,4.20
2023-08-29T07:44:24.200Z,4.20
2023-08-29T07:47:26.195Z,4.20
2023-08-29T07:53:30.779Z,4.13
2023-08-29T07:59:34.404Z,4.53
2023-08-29T08:02:39.616Z,4.18
2023-08-29T08:05:41.651Z,4.38
2023-08-29T08:11:45.500Z,4.40
2023-08-29T08:17:49.829Z,3.95
2023-08-29T08:20:51.774Z,4.78
2023-08-29T08:26:55.513Z,4.47
2023-08-29T08:36:01.380Z,4.43
2023-08-29T08:42:07.084Z,4.03
2023-08-29T08:45:11.664Z,3.90
2023-08-29T08:48:14.345Z,4.30
2023-08-29T08:51:20.385Z,3.88
2023-08-29T08:54:22.229Z,3.55
2023-08-29T09:00:26.679Z,3.47
2023-08-29T09:03:28.577Z,3.50
2023-08-29T09:06:31.682Z,3.33
2023-08-29T09:09:33.734Z,3.22
2023-08-29T09:12:35.780Z,3.42
2023-08-29T09:15:39.158Z,3.30
2023-08-29T09:18:44.720Z,3.40
2023-08-29T09:21:46.645Z,3.30
2023-08-29T09:24:50.363Z,3.17
2023-08-29T09:27:52.334Z,3.33
2023-08-29T09:30:54.567Z,3.58
2023-08-29T09:33:56.547Z,3.38
2023-08-29T09:36:59.679Z,4.15
2023-08-29T09:40:11.283Z,3.63
2023-08-29T09:43:23.389Z,3.47
2023-08-29T09:46:30.857Z,3.58
2023-08-29T09:49:43.868Z,3.50
2023-08-29T09:52:46.606Z,3.53
2023-08-29T09:55:54.486Z,4.05
2023-08-29T09:59:00.718Z,3.35
2023-08-29T10:02:05.106Z,4.32
2023-08-29T10:05:13.353Z,3.80
2023-08-29T10:08:25.216Z,3.55
2023-08-29T10:14:39.816Z,3.83
2023-08-29T10:17:44.006Z,3.75
2023-08-29T10:20:47.333Z,3.40
2023-08-29T10:23:52.749Z,3.58
2023-08-29T10:26:55.257Z,3.53
2023-08-29T10:29:57.334Z,3.67
2023-08-29T10:32:59.980Z,3.47
2023-08-29T10:36:05.028Z,3.20
2023-08-29T10:39:10.769Z,3.50
2023-08-29T10:42:15.605Z,3.53
2023-08-29T10:45:17.798Z,4.05
2023-08-29T10:48:46.182Z,3.30
2023-08-29T10:52:08.604Z,3.22
2023-08-29T10:55:21.888Z,3.38
2023-08-29T10:58:42.767Z,3.85
2023-08-29T11:01:44.745Z,3.22
2023-08-29T11:04:55.934Z,3.55
2023-08-29T11:08:24.037Z,3.47
2023-08-29T11:11:25.926Z,3.30
2023-08-29T11:14:54.437Z,4.10
2023-08-29T11:18:24.775Z,2.75
2023-08-29T11:21:27.099Z,3.00
2023-08-29T11:24:30.482Z,3.40
2023-08-29T11:27:39.413Z,3.30
2023-08-29T11:30:44.802Z,3.60
2023-08-29T11:33:48.000Z,3.20
2023-08-29T11:36:52.329Z,3.13
2023-08-29T11:39:56.743Z,3.20
2023-08-29T11:43:49.927Z,3.55
2023-08-29T11:46:21.255Z,3.40
2023-08-29T11:49:23.184Z,3.20
2023-08-29T11:52:25.251Z,3.28
2023-08-29T11:55:27.383Z,4.60
2023-08-29T11:58:30.699Z,4.90
2023-08-29T12:01:37.699Z,3.88
2023-08-29T12:04:43.793Z,3.67
2023-08-29T12:07:46.222Z,3.47
2023-08-29T12:10:54.014Z,3.35
2023-08-29T12:14:08.287Z,3.30
2023-08-29T12:17:10.698Z,3.25
2023-08-29T12:20:12.511Z,3.35
2023-08-29T12:23:23.864Z,3.15
2023-08-29T12:26:26.302Z,3.25
2023-08-29T12:29:28.227Z,3.28
2023-08-29T12:32:30.797Z,3.50
2023-08-29T12:35:32.704Z,3.10
2023-08-29T12:38:34.712Z,3.53
2023-08-29T12:41:37.566Z,3.22
2023-08-29T12:44:39.531Z,3.28
2023-08-29T12:47:41.540Z,3.28
2023-08-29T12:50:44.000Z,3.45
2023-08-29T12:53:45.829Z,3.38
2023-08-29T12:56:47.783Z,3.92
2023-08-29T12:59:49.748Z,3.45
2023-08-29T13:02:52.310Z,3.25
2023-08-29T13:05:54.529Z,3.35
2023-08-29T13:08:57.733Z,3.78
2023-08-29T13:11:59.549Z,3.25
2023-08-29T13:15:01.435Z,3.75
2023-08-29T13:18:04.062Z,3.17
2023-08-29T13:21:05.981Z,3.28
2023-08-29T13:24:08.368Z,3.28
2023-08-29T13:27:10.481Z,3.20
2023-08-29T13:30:13.664Z,3.95
2023-08-29T13:33:15.570Z,4.03
2023-08-29T13:36:17.496Z,3.83
2023-08-29T13:39:19.453Z,3.28
2023-08-29T13:42:21.380Z,4.10
2023-08-29T13:45:23.330Z,3.75
2023-08-29T13:48:25.282Z,3.60
2023-08-29T13:51:27.404Z,3.85
2023-08-29T13:54:29.318Z,4.70
2023-08-29T13:57:31.961Z,4.85
2023-08-29T14:00:33.975Z,4.55
2023-08-29T14:03:39.106Z,3.75
2023-08-29T14:06:41.546Z,3.97
2023-08-29T14:09:43.653Z,3.85
2023-08-29T14:12:46.197Z,3.90
2023-08-29T14:15:48.097Z,3.35
2023-08-29T14:18:50.029Z,3.95
2023-08-29T14:21:51.993Z,4.10
2023-08-29T14:24:53.928Z,3.92
2023-08-29T14:27:58.452Z,3.10
2023-08-29T14:31:00.449Z,3.85
2023-08-29T14:34:02.393Z,4.80
2023-08-29T14:37:05.132Z,4.50
2023-08-29T14:40:08.102Z,7.97
2023-08-29T14:43:10.570Z,7.20
2023-08-29T14:46:12.477Z,5.60
2023-08-29T14:49:16.406Z,4.40
2023-08-29T14:52:18.369Z,4.40
2023-08-29T14:55:22.670Z,5.75
2023-08-29T14:58:25.791Z,4.45
2023-08-29T15:01:28.134Z,5.10
2023-08-29T15:04:30.054Z,4.75
2023-08-29T15:07:32.009Z,5.60
2023-08-29T15:10:34.224Z,5.80
2023-08-29T15:13:36.300Z,5.70
2023-08-29T15:16:38.226Z,5.80
2023-08-29T15:19:40.488Z,6.28
2023-08-29T15:22:45.382Z,5.68
2023-08-29T15:25:47.270Z,6.65
2023-08-29T15:28:49.312Z,7.10
2023-08-29T15:31:51.222Z,6.25
2023-08-29T15:34:53.179Z,5.55
2023-08-29T15:37:55.137Z,4.45
2023-08-29T15:40:57.055Z,4.35
2023-08-29T15:43:58.944Z,4.05
2023-08-29T15:47:01.707Z,3.80
2023-08-29T15:50:04.230Z,3.88
2023-08-29T15:53:06.127Z,3.80
2023-08-29T15:56:08.498Z,4.10
2023-08-29T15:59:10.324Z,3.33
2023-08-29T16:02:12.324Z,3.80
2023-08-29T16:05:14.560Z,3.90
2023-08-29T16:08:16.904Z,3.58
2023-08-29T16:11:20.640Z,4.05
2023-08-29T16:14:23.397Z,4.22
2023-08-29T16:17:26.475Z,3.78
2023-08-29T16:20:28.466Z,4.30
2023-08-29T16:23:30.845Z,4.20
2023-08-29T16:26:32.760Z,4.80
2023-08-29T16:32:36.933Z,4.00
2023-08-29T16:35:38.874Z,4.38
2023-08-29T16:44:44.802Z,4.18
2023-08-29T16:47:46.825Z,4.30
2023-08-29T16:50:50.950Z,4.07
2023-08-29T16:53:52.814Z,3.90
2023-08-29T17:00:01.761Z,4.68
2023-08-29T17:03:11.180Z,4.30
2023-08-29T17:06:14.045Z,4.65
2023-08-29T17:09:15.988Z,4.47
2023-08-29T17:15:20.819Z,4.85
2023-08-29T17:21:24.841Z,4.85
2023-08-29T17:24:27.237Z,4.70
2023-08-29T17:27:29.230Z,4.50
2023-08-29T17:33:33.040Z,4.80
2023-08-29T17:39:37.278Z,5.30
2023-08-29T17:42:43.838Z,5.75
2023-08-29T17:45:46.088Z,5.72
2023-08-29T17:48:48.033Z,4.95
2023-08-29T17:51:50.012Z,4.93
2023-08-29T17:57:54.212Z,4.63
2023-08-29T18:03:59.848Z,4.80
2023-08-29T18:07:01.860Z,4.90
2023-08-29T18:13:13.812Z,4.63
2023-08-29T18:16:15.771Z,4.95
2023-08-29T18:19:17.766Z,4.72
2023-08-29T18:22:19.675Z,5.55
2023-08-29T18:25:21.630Z,4.93
2023-08-29T18:28:23.516Z,5.40
2023-08-29T18:31:25.478Z,5.40
2023-08-29T18:37:29.242Z,5.00
2023-08-29T18:40:31.362Z,4.57
2023-08-29T18:46:35.365Z,4.63
2023-08-29T18:49:37.284Z,4.45
2023-08-29T18:52:39.393Z,5.72
2023-08-29T18:58:47.301Z,5.13
2023-08-29T19:01:49.267Z,4.78
2023-08-29T19:04:51.576Z,4.82
2023-08-29T19:07:55.753Z,4.72
2023-08-29T19:11:06.212Z,5.32
2023-08-29T19:14:08.542Z,4.80
2023-08-29T19:17:10.437Z,4.80
2023-08-29T19:20:12.550Z,5.00
2023-08-29T19:26:16.618Z,4.65
2023-08-29T19:29:20.091Z,5.30
2023-08-29T19:32:22.142Z,5.03
2023-08-29T19:35:27.079Z,4.90
2023-08-29T19:38:28.973Z,5.45
2023-08-29T19:41:32.060Z,5.38
2023-08-29T19:44:34.030Z,5.38
2023-08-29T19:47:35.925Z,5.03
2023-08-29T19:50:37.891Z,5.53
2023-08-29T19:53:39.692Z,5.30
2023-08-29T19:56:41.653Z,4.90
2023-08-29T19:59:43.615Z,4.88
2023-08-29T20:02:48.005Z,5.32
2023-08-29T20:05:50.179Z,5.35
2023-08-29T20:08:52.696Z,5.88
2023-08-29T20:11:55.147Z,5.18
2023-08-29T20:14:57.083Z,5.40
2023-08-29T20:17:59.541Z,5.30
2023-08-29T20:21:02.237Z,4.57
2023-08-29T20:24:04.763Z,4.97
2023-08-29T20:27:06.742Z,4.78
2023-08-29T20:30:10.895Z,5.18
2023-08-29T20:33:12.793Z,4.60
2023-08-29T20:36:14.777Z,5.32
2023-08-29T20:39:16.756Z,4.63
2023-08-29T20:42:18.730Z,4.85
2023-08-29T20:45:23.115Z,4.40
2023-08-29T20:48:26.163Z,4.60
2023-08-29T20:51:30.393Z,4.38
2023-08-29T20:54:32.229Z,4.65
2023-08-29T20:57:34.213Z,4.90
2023-08-29T21:00:36.317Z,4.90
2023-08-29T21:03:38.334Z,4.57
2023-08-29T21:06:40.403Z,4.75
2023-08-29T21:09:42.459Z,4.63
2023-08-29T21:12:44.412Z,4.95
2023-08-29T21:15:47.139Z,4.57
2023-08-29T21:18:49.019Z,4.70
2023-08-29T21:21:50.965Z,4.40
2023-08-29T21:24:53.919Z,4.30
2023-08-29T21:27:55.798Z,4.40
2023-08-29T21:30:57.838Z,4.35
2023-08-29T21:33:59.717Z,4.60
2023-08-29T21:37:01.633Z,4.50
2023-08-29T21:40:05.950Z,4.53
2023-08-29T21:43:09.847Z,4.90
2023-08-29T21:46:11.847Z,4.70
2023-08-29T21:49:13.689Z,5.20
2023-08-29T21:52:15.617Z,4.75
2023-08-29T21:55:17.537Z,4.78
2023-08-29T21:58:23.169Z,4.85
2023-08-29T22:01:25.153Z,3.95
2023-08-29T22:04:27.056Z,5.15
2023-08-29T22:07:29.132Z,4.80
2023-08-29T22:10:32.329Z,4.53
2023-08-29T22:13:35.912Z,4.85
2023-08-29T22:16:37.808Z,4.63
2023-08-29T22:19:39.697Z,4.88
2023-08-29T22:22:42.040Z,4.85
2023-08-29T22:31:48.489Z,4.90
2023-08-29T22:34:50.539Z,4.80
2023-08-29T22:37:53.084Z,4.72
2023-08-29T22:40:55.244Z,4.43
2023-08-29T22:43:57.178Z,4.60
2023-08-29T22:46:59.178Z,4.30
2023-08-29T22:50:01.254Z,4.68
2023-08-29T22:53:03.438Z,4.80
2023-08-29T22:56:06.257Z,4.60
2023-08-29T22:59:08.114Z,5.22
2023-08-29T23:02:10.124Z,5.28
2023-08-29T23:05:12.196Z,5.05
2023-08-29T23:08:14.963Z,4.70
2023-08-29T23:11:16.984Z,4.63
2023-08-29T23:14:26.865Z,4.55
2023-08-29T23:17:29.440Z,4.70
2023-08-29T23:20:31.526Z,4.75
2023-08-29T23:23:34.887Z,4.28
2023-08-29T23:26:37.347Z,5.03
2023-08-29T23:29:39.431Z,4.13
2023-08-29T23:32:41.352Z,4.90
2023-08-29T23:35:43.220Z,5.32
2023-08-29T23:38:45.245Z,4.70
2023-08-29T23:41:49.040Z,5.18
2023-08-29T23:44:51.013Z,5.30
2023-08-29T23:47:53.034Z,5.13
2023-08-29T23:50:54.980Z,5.45
2023-08-29T23:53:56.991Z,5.35
2023-08-29T23:56:58.935Z,5.28
